Relevés horaires Matro (Suisse)


Relevés horaires à Matro - Dimanche 20 Févr. 2022
Heure UTC1 Température [°C] Vent [km/h] Hum. [%] Pres.4 [hPa] Visi. [Km] Nébu. [octa] Préc.5 [mm] Cond.
2m. Res. Ros. Dir.2 Vit. Moy. Raf.3
23:00 -1.3 -6.6 -8.3 SSE 18.5 -- 25.9 59 850(-1.8/3h) -- -- -- --
22:00 -1.3 -5.6 -8.2 SSE 13.0 -- 20.4 59 850(-1.2/3h) -- -- -- --
21:00 -1.0 -4.8 -8.7 E 11.1 -- 18.5 56 850(-1.1/3h) -- -- -- --
20:00 -0.2 -3.8 -8.7 O 11.1 -- 18.5 53 850(-0.4/3h) -- -- -- --
19:00 -0.3 -3.5 -8.7 OSO 9.3 -- 13.0 53 850(-0.5/3h) -- -- -- --
18:00 0.1 0.1 -8.7 SSO 3.7 -- 27.8 51 850(-0.3/3h) -- -- -- --
17:00 -0.1 -0.1 -8.7 ONO 3.7 -- 13.0 52 850(-0.7/3h) -- -- -- --
16:00 0.2 -1.6 -8.8 ONO 5.6 -- 20.4 51 850(-0.7/3h) -- -- -- --
15:00 0.6 -4.5 -8.9 NNO 20.4 -- 27.8 49 850(-0.8/3h) -- -- -- --
14:00 0.5 -3 -8.9 ONO 11.1 -- 24.1 49 850(-0.7/3h) -- -- -- --
13:00 0.8 -2.2 -9.1 ONO 9.3 -- 25.9 47 850(-0.2/3h) -- -- -- --
12:00 0.8 -2.2 -8.4 OSO 9.3 -- 35.2 50 850(0.5/3h) -- -- -- --
11:00 -0.9 -4.2 -9.2 O 9.3 -- 22.2 53 850(1.3/3h) -- -- -- --
10:00 -1.6 -5 -9.5 N 9.3 -- 25.9 55 850(1.3/3h) -- -- -- --
09:00 -2.0 -5.5 -8.8 O 9.3 -- 35.2 60 850(1.6/3h) -- -- -- --
08:00 -1.9 -1.9 -9.7 E 3.7 -- 31.5 55 850(0.8/3h) -- -- -- --
07:00 -2.7 -8.4 -8.8 NO 18.5 -- 35.2 63 850(0.4/3h) -- -- -- --
06:00 -2.6 -9.4 -9.3 NO 25.9 -- 51.9 60 850(0.2/3h) -- -- -- --
05:00 -2.9 -9.2 -10.8 NO 22.2 -- 37.0 54 850(0.1/3h) -- -- -- --
04:00 -3.1 -10.3 -12.6 NNO 27.8 -- 50.0 48 850(-0.1/3h) -- -- -- --
03:00 -2.9 -11.2 -16.6 NNO 38.9 -- 51.9 34 850(-0.5/3h) -- -- -- --
02:00 -2.5 -9.2 -21.7 NO 25.9 -- 37.0 21 850(-0.2/3h) -- -- -- --
01:00 -2.5 -8.1 -21.9 NO 18.5 -- 24.1 21 850(0.1/3h) -- -- -- --
00:00 -3.1 -7.8 -19.3 NO 13.0 -- 22.2 27 850(0.2/3h) -- -- -- --

1 Coordinated Universal Time. Actuellement il est 00:00 locale et 22:00 UTC.

2 Le vent souffle depuis la direction indiquée vers la direction oposée.

3 Les rafales max. sont disponible 40 min après l'heure du relevé.

4 Pour les stations d'altitude (plus de 600m) le géopotentiel du niveau le plus proche de la pression obligatoire est indiqué.

5 Les stations disposant d'un diffuseur peuvent indiquer "trace". Cela signifie que des précipitations ont touchés le sol mais que la quantité est inférieure à 0.1 mm.

Copyright

Les données affichées sur cette page sont la propriété exclusive de Météo Suisse.

Récapitulatif de la journée
Température [°C] Vent [km/h] Ensoleillement4 [h] Precipitations totale5 [mm] Pression [Hpa]
Min1 Max.2 Moy.3 Max. Min Max.
-3.2 2.1 0 51.9 7 h 18 min 0 850.0 850.0

1 Température minimale relevée entre 18:00 UTC la veille et 18:00 UTC le jour donné.

2 Température maximale relevée entre 06:00 UTC le jour donné et 06:00 UTC le lendemain.

3 Vent moyen de la journée basé sur les relevés horaires.

4 Ensoleillement en heures relevé entre 06:00 UTC la veille et 06:00 UTC le jour donné.

5 Précipitations totales tombées entre 06:00 UTC la jour donné et 06:00 UTC le lendemain.

Graphiques horaires